Haggerty Girls — WDG9740 — position and weather

sailwx.info

Track history (hours):
 
Tides and Currents Weather Stations Pressure Air Temp Water Temp Dewpoint Dewpoint Depression Visibility Wind Speed Wind Dir Waves Ship Positions

Haggerty Girls

Owner: REINAUER TRANSPORTATION CO.,LLC, STATEN ISLAND, NY. More information available from US FCC via Universal Licensing System and Coast Guard Vessel Documentation Center.

Last reported at 2018-Feb-24 23:45 UTC. Time now 2018-Feb-25 03:55 UTC.
Position N 41°07' W 072°41'.

Length 146 m; draft 7.5 m.

Type: . MMSI: 367590780.

Date/timePositionNaut miles runAvg speedWind from/ knotsBaromVisibWave heightAir tempDewpointWater temp
2018-Feb-24 23:45N 41°07' W 072°41'210.1
2018-Feb-24 23:30N 41°07' W 072°38'510.4
2018-Feb-24 23:00N 41°09' W 072°31'510.9
2018-Feb-24 22:30N 41°10' W 072°24'611.0
2018-Feb-24 22:00N 41°12' W 072°17'611.0
2018-Feb-24 21:30N 41°13' W 072°10'48 8.4
2018-Feb-24 15:46N 41°46' W 071°23'0 0.0
2018-Feb-24 03:43N 41°46' W 071°23'1 5.8
2018-Feb-24 03:28N 41°44' W 071°22'41 4.4
2018-Feb-23 18:07N 42°08' W 070°36'2 9.6
2018-Feb-23 17:55N 42°10' W 070°38'4 9.6
2018-Feb-23 17:30N 42°13' W 070°40'5 9.4
2018-Feb-23 17:00N 42°17' W 070°43'5 9.6
2018-Feb-23 16:30N 42°20' W 070°48'4 8.8
2018-Feb-23 16:00N 42°23' W 070°53'5 9.3
2018-Feb-23 15:30N 42°20' W 070°58'4 7.9
2018-Feb-23 15:01N 42°22' W 071°03'2 4.2
2018-Feb-23 14:30N 42°24' W 071°01'0 0.6
2018-Feb-23 14:00N 42°24' W 071°01'0 0.0
2018-Feb-23 13:30N 42°24' W 071°01'0 0.0
2018-Feb-23 12:59N 42°24' W 071°01'0 0.0
2018-Feb-23 12:26N 42°24' W 071°01'0 0.0
2018-Feb-23 11:59N 42°24' W 071°01'0 0.0
2018-Feb-23 11:29N 42°24' W 071°01'0 0.0
2018-Feb-23 11:00N 42°24' W 071°01'0 0.0
2018-Feb-23 10:29N 42°24' W 071°01'0 0.0
2018-Feb-23 10:00N 42°24' W 071°01'0 0.0
2018-Feb-23 09:30N 42°24' W 071°01'0 0.0
2018-Feb-23 08:59N 42°24' W 071°01'0 0.0
2018-Feb-23 08:29N 42°24' W 071°01'0 0.0
2018-Feb-23 07:59N 42°24' W 071°01'0 0.0
2018-Feb-23 07:29N 42°24' W 071°01'0 0.0
2018-Feb-23 06:59N 42°24' W 071°01'0 0.0
2018-Feb-23 06:30N 42°24' W 071°01'0 0.0
2018-Feb-23 05:59N 42°24' W 071°01'0 0.0
2018-Feb-23 05:29N 42°24' W 071°01'0 0.0
2018-Feb-23 04:59N 42°24' W 071°01'0 0.0
2018-Feb-23 04:29N 42°24' W 071°01'0 0.0
2018-Feb-23 03:59N 42°24' W 071°01'0 0.0
2018-Feb-23 03:30N 42°24' W 071°01'0 0.0
2018-Feb-23 02:59N 42°24' W 071°01'0 0.0
2018-Feb-23 02:29N 42°24' W 071°01'0 0.0
2018-Feb-23 01:59N 42°24' W 071°01'0 0.0
2018-Feb-23 01:30N 42°24' W 071°01'0 0.1
2018-Feb-23 01:00N 42°24' W 071°01'1 2.2
2018-Feb-23 00:31N 42°23' W 071°02'1 2.1
2018-Feb-23 00:00N 42°23' W 071°03'0 0.0
2018-Feb-22 23:30N 42°23' W 071°03'0 0.1
2018-Feb-22 22:59N 42°23' W 071°03'0 0.0
2018-Feb-22 22:29N 42°23' W 071°03'0 0.0
2018-Feb-22 21:56N 42°23' W 071°03'0 0.0
2018-Feb-22 21:29N 42°23' W 071°03'0 0.0
2018-Feb-22 20:59N 42°23' W 071°03'0 0.0
2018-Feb-22 20:29N 42°23' W 071°03'0 0.0
2018-Feb-22 19:59N 42°23' W 071°03'0 0.0
2018-Feb-22 19:29N 42°23' W 071°03'0 0.0
2018-Feb-22 18:59N 42°23' W 071°03'0 0.0
2018-Feb-22 18:29N 42°23' W 071°03'0 0.0
2018-Feb-22 17:59N 42°23' W 071°03'0 0.0
2018-Feb-22 17:29N 42°23' W 071°03'0 0.0
2018-Feb-22 16:59N 42°23' W 071°03'0 0.0
2018-Feb-22 16:29N 42°23' W 071°03'0 0.0
2018-Feb-22 15:59N 42°23' W 071°03'0 0.0
2018-Feb-22 15:26N 42°23' W 071°03'0 0.0
2018-Feb-22 14:56N 42°23' W 071°03'0 0.0
2018-Feb-22 14:29N 42°23' W 071°03'0 0.0
2018-Feb-22 13:59N 42°23' W 071°03'0 0.0
2018-Feb-22 13:29N 42°23' W 071°03'0 0.1
2018-Feb-22 13:00N 42°23' W 071°03'0 0.0
2018-Feb-22 12:30N 42°23' W 071°03'1 2.8
2018-Feb-22 12:00N 42°22' W 071°03'4 7.2
2018-Feb-22 11:30N 42°20' W 070°59'4 7.7
2018-Feb-22 11:00N 42°22' W 070°55'4 7.7
2018-Feb-22 10:31N 42°22' W 070°49'5 9.4
2018-Feb-22 10:00N 42°19' W 070°45'5 9.1
2018-Feb-22 09:29N 42°15' W 070°41'4 9.2
2018-Feb-22 09:01N 42°11' W 070°38'88 2.5
2018-Feb-20 22:01N 41°14' W 072°07'012.2
2018-Feb-20 21:59N 41°14' W 072°08'612.0
2018-Feb-20 21:30N 41°12' W 072°15'611.8
2018-Feb-20 21:00N 41°11' W 072°23'510.9
2018-Feb-20 20:30N 41°09' W 072°29'510.4
2018-Feb-20 20:00N 41°08' W 072°36'55 9.2
2018-Feb-20 14:05N 40°51' W 073°45'110.3
2018-Feb-20 13:59N 40°50' W 073°46'4 8.4
2018-Feb-20 13:30N 40°48' W 073°50'5 9.3
2018-Feb-20 13:00N 40°47' W 073°56'5 9.6
2018-Feb-20 12:30N 40°42' W 073°59'4 8.6
2018-Feb-20 12:00N 40°40' W 074°03'4 7.0
2018-Feb-20 11:30N 40°39' W 074°08'3 6.5
2018-Feb-20 11:00N 40°38' W 074°12'3 5.1
2018-Feb-20 10:29N 40°36' W 074°12'1 2.7
2018-Feb-20 10:00N 40°34' W 074°13'2 0.6
2018-Feb-20 07:15N 40°33' W 074°14'0 0.3
2018-Feb-20 06:48N 40°34' W 074°14'0 0.0
2018-Feb-20 06:18N 40°34' W 074°14'0 0.0
2018-Feb-20 06:00N 40°34' W 074°14'0 0.0
2018-Feb-20 05:30N 40°34' W 074°14'0 0.0
2018-Feb-20 05:00N 40°34' W 074°14'0 0.0
2018-Feb-20 04:18N 40°34' W 074°14'0 0.0
2018-Feb-20 04:00N 40°34' W 074°14'0 0.0
2018-Feb-20 03:30N 40°34' W 074°14'0 0.0
2018-Feb-20 03:00N 40°34' W 074°14'0 0.0
2018-Feb-20 02:24N 40°34' W 074°14'0 0.0
2018-Feb-20 02:00N 40°34' W 074°14'0 0.0
2018-Feb-20 01:30N 40°34' W 074°14'0 0.0
2018-Feb-20 01:00N 40°34' W 074°14'0 0.0
2018-Feb-20 00:30N 40°34' W 074°14'0 0.0
2018-Feb-19 23:54N 40°34' W 074°14'0 0.0
2018-Feb-19 23:30N 40°34' W 074°14'0 0.0
2018-Feb-19 23:00N 40°34' W 074°14'0 0.0
2018-Feb-19 22:24N 40°34' W 074°14'0 0.0
2018-Feb-19 21:54N 40°34' W 074°14'0 0.0
2018-Feb-19 21:24N 40°34' W 074°14'0 0.0
2018-Feb-19 21:00N 40°34' W 074°14'0 0.0
2018-Feb-19 20:30N 40°34' W 074°14'0 0.0
2018-Feb-19 19:54N 40°34' W 074°14'0 0.0
2018-Feb-19 19:30N 40°34' W 074°14'0 0.0
2018-Feb-19 18:54N 40°34' W 074°14'0 0.0
2018-Feb-19 16:33N 40°34' W 074°14'0 0.0
2018-Feb-19 16:16N 40°34' W 074°14'0 0.0
2018-Feb-19 16:00N 40°33' W 074°14'4 7.1
2018-Feb-19 15:30N 40°37' W 074°12'4 7.3
2018-Feb-19 14:59N 40°39' W 074°08'0 0.6
2018-Feb-19 14:30N 40°38' W 074°08'0 0.0
2018-Feb-19 13:59N 40°38' W 074°08'0 0.0
2018-Feb-19 13:30N 40°38' W 074°08'3 5.8
2018-Feb-19 12:59N 40°38' W 074°12'5 9.4
2018-Feb-19 12:30N 40°34' W 074°13'1 2.5
2018-Feb-19 11:59N 40°33' W 074°14'0 0.0
2018-Feb-19 11:29N 40°33' W 074°14'2 3.1
2018-Feb-19 10:59N 40°34' W 074°13'2 4.2
2018-Feb-19 10:30N 40°36' W 074°12'3 6.4
2018-Feb-19 09:59N 40°39' W 074°09'4 8.5
2018-Feb-19 09:30N 40°39' W 074°04'510.7
2018-Feb-19 09:00N 40°44' W 074°01'611.7
2018-Feb-19 08:30N 40°49' W 073°58'510.9
2018-Feb-19 08:00N 40°54' W 073°55'  
2018-Feb-16 19:37N 40°58' W 073°54'1 7.4
2018-Feb-16 19:30N 40°57' W 073°54'4 7.4
2018-Feb-16 19:00N 40°53' W 073°56'4 7.6
2018-Feb-16 18:31N 40°50' W 073°58'4 7.9
2018-Feb-16 18:00N 40°46' W 074°00'4 8.3
2018-Feb-16 17:30N 40°42' W 074°02'4 8.6
2018-Feb-16 17:00N 40°45' W 073°58'5 9.8
2018-Feb-16 16:30N 40°48' W 073°52'4 8.3
2018-Feb-16 16:00N 40°49' W 073°47'5 9.8
2018-Feb-16 15:27N 40°53' W 073°42'4710.1
2018-Feb-16 10:46N 41°06' W 072°42'3 9.6
2018-Feb-16 10:28N 41°07' W 072°38'4 9.3
2018-Feb-16 10:00N 41°08' W 072°33'5 9.1
2018-Feb-16 09:30N 41°09' W 072°27'4 8.0
2018-Feb-16 09:00N 41°11' W 072°22'4 7.4
2018-Feb-16 08:30N 41°12' W 072°17'4 7.4
2018-Feb-16 07:59N 41°13' W 072°12'4 7.4
2018-Feb-16 07:30N 41°14' W 072°08'90 7.2
2018-Feb-15 19:00N 42°11' W 070°34'5 9.7
2018-Feb-15 18:30N 42°14' W 070°39'5 9.8
2018-Feb-15 18:00N 42°18' W 070°43'5 9.8
2018-Feb-15 17:30N 42°21' W 070°48'4 8.9
2018-Feb-15 17:01N 42°22' W 070°54'5 8.9
2018-Feb-15 16:27N 42°20' W 070°60'4 8.1
2018-Feb-15 16:00N 42°23' W 071°03'1 1.5
2018-Feb-15 15:31N 42°23' W 071°03'0 0.1
2018-Feb-15 14:59N 42°23' W 071°03'0 0.0
2018-Feb-15 14:26N 42°23' W 071°03'0 0.0
2018-Feb-15 13:59N 42°23' W 071°03'0 0.0
2018-Feb-15 13:26N 42°23' W 071°03'0 0.0
2018-Feb-15 12:59N 42°23' W 071°03'0 0.0
2018-Feb-15 12:29N 42°23' W 071°03'0 0.0
2018-Feb-15 11:59N 42°23' W 071°03'0 0.0
2018-Feb-15 11:29N 42°23' W 071°03'0 0.0
2018-Feb-15 10:59N 42°23' W 071°03'0 0.0
2018-Feb-15 10:29N 42°23' W 071°03'0 0.0
2018-Feb-15 09:56N 42°23' W 071°03'0 0.0
2018-Feb-15 09:26N 42°23' W 071°03'0 0.0
2018-Feb-15 08:59N 42°23' W 071°03'0 0.0
2018-Feb-15 08:26N 42°23' W 071°03'0 0.0
2018-Feb-15 07:59N 42°23' W 071°03'0 0.0
2018-Feb-15 07:26N 42°23' W 071°03'0 0.0
2018-Feb-15 06:56N 42°23' W 071°03'0 0.0
2018-Feb-15 06:20N 42°23' W 071°03'0 0.0
2018-Feb-15 05:59N 42°23' W 071°03'0 0.1
2018-Feb-15 05:30N 42°23' W 071°03'0 0.2
2018-Feb-15 05:01N 42°23' W 071°03'2 3.3
2018-Feb-15 04:30N 42°23' W 071°01'0 1.0
2018-Feb-15 04:00N 42°24' W 071°01'0 0.0
2018-Feb-15 03:31N 42°24' W 071°01'0 0.0
2018-Feb-15 03:00N 42°24' W 071°01'0 0.1
2018-Feb-15 02:31N 42°24' W 071°01'0 0.0
2018-Feb-15 02:00N 42°24' W 071°01'0 0.0
2018-Feb-15 01:30N 42°24' W 071°01'0 0.0
2018-Feb-15 01:01N 42°24' W 071°01'0 0.0
2018-Feb-15 00:30N 42°24' W 071°01'0 0.0
2018-Feb-15 00:00N 42°24' W 071°01'  
Track history (hours):
 
Tides and Currents Weather Stations Pressure Air Temp Water Temp Dewpoint Dewpoint Depression Visibility Wind Speed Wind Dir Waves Ship Positions

Haggerty Girls

Owner: REINAUER TRANSPORTATION CO.,LLC, STATEN ISLAND, NY. More information available from US FCC via Universal Licensing System and Coast Guard Vessel Documentation Center.

Last reported at 2018-Feb-24 23:45 UTC. Time now 2018-Feb-25 03:55 UTC.
Position N 41°07' W 072°41'.

Length 146 m; draft 7.5 m.

Type: . MMSI: 367590780.

Date/timePositionNaut miles runAvg speedWind from/ knotsBaromVisibWave heightAir tempDewpointWater temp
2018-Feb-24 23:45N 41°07' W 072°41'210.1
2018-Feb-24 23:30N 41°07' W 072°38'510.4
2018-Feb-24 23:00N 41°09' W 072°31'510.9
2018-Feb-24 22:30N 41°10' W 072°24'611.0
2018-Feb-24 22:00N 41°12' W 072°17'611.0
2018-Feb-24 21:30N 41°13' W 072°10'48 8.4
2018-Feb-24 15:46N 41°46' W 071°23'0 0.0
2018-Feb-24 03:43N 41°46' W 071°23'1 5.8
2018-Feb-24 03:28N 41°44' W 071°22'41 4.4
2018-Feb-23 18:07N 42°08' W 070°36'2 9.6
2018-Feb-23 17:55N 42°10' W 070°38'4 9.6
2018-Feb-23 17:30N 42°13' W 070°40'5 9.4
2018-Feb-23 17:00N 42°17' W 070°43'5 9.6
2018-Feb-23 16:30N 42°20' W 070°48'4 8.8
2018-Feb-23 16:00N 42°23' W 070°53'5 9.3
2018-Feb-23 15:30N 42°20' W 070°58'4 7.9
2018-Feb-23 15:01N 42°22' W 071°03'2 4.2
2018-Feb-23 14:30N 42°24' W 071°01'0 0.6
2018-Feb-23 14:00N 42°24' W 071°01'0 0.0
2018-Feb-23 13:30N 42°24' W 071°01'0 0.0
2018-Feb-23 12:59N 42°24' W 071°01'0 0.0
2018-Feb-23 12:26N 42°24' W 071°01'0 0.0
2018-Feb-23 11:59N 42°24' W 071°01'0 0.0
2018-Feb-23 11:29N 42°24' W 071°01'0 0.0
2018-Feb-23 11:00N 42°24' W 071°01'0 0.0
2018-Feb-23 10:29N 42°24' W 071°01'0 0.0
2018-Feb-23 10:00N 42°24' W 071°01'0 0.0
2018-Feb-23 09:30N 42°24' W 071°01'0 0.0
2018-Feb-23 08:59N 42°24' W 071°01'0 0.0
2018-Feb-23 08:29N 42°24' W 071°01'0 0.0
2018-Feb-23 07:59N 42°24' W 071°01'0 0.0
2018-Feb-23 07:29N 42°24' W 071°01'0 0.0
2018-Feb-23 06:59N 42°24' W 071°01'0 0.0
2018-Feb-23 06:30N 42°24' W 071°01'0 0.0
2018-Feb-23 05:59N 42°24' W 071°01'0 0.0
2018-Feb-23 05:29N 42°24' W 071°01'0 0.0
2018-Feb-23 04:59N 42°24' W 071°01'0 0.0
2018-Feb-23 04:29N 42°24' W 071°01'0 0.0
2018-Feb-23 03:59N 42°24' W 071°01'0 0.0
2018-Feb-23 03:30N 42°24' W 071°01'0 0.0
2018-Feb-23 02:59N 42°24' W 071°01'0 0.0
2018-Feb-23 02:29N 42°24' W 071°01'0 0.0
2018-Feb-23 01:59N 42°24' W 071°01'0 0.0
2018-Feb-23 01:30N 42°24' W 071°01'0 0.1
2018-Feb-23 01:00N 42°24' W 071°01'1 2.2
2018-Feb-23 00:31N 42°23' W 071°02'1 2.1
2018-Feb-23 00:00N 42°23' W 071°03'0 0.0
2018-Feb-22 23:30N 42°23' W 071°03'0 0.1
2018-Feb-22 22:59N 42°23' W 071°03'0 0.0
2018-Feb-22 22:29N 42°23' W 071°03'0 0.0
2018-Feb-22 21:56N 42°23' W 071°03'0 0.0
2018-Feb-22 21:29N 42°23' W 071°03'0 0.0
2018-Feb-22 20:59N 42°23' W 071°03'0 0.0
2018-Feb-22 20:29N 42°23' W 071°03'0 0.0
2018-Feb-22 19:59N 42°23' W 071°03'0 0.0
2018-Feb-22 19:29N 42°23' W 071°03'0 0.0
2018-Feb-22 18:59N 42°23' W 071°03'0 0.0
2018-Feb-22 18:29N 42°23' W 071°03'0 0.0
2018-Feb-22 17:59N 42°23' W 071°03'0 0.0
2018-Feb-22 17:29N 42°23' W 071°03'0 0.0
2018-Feb-22 16:59N 42°23' W 071°03'0 0.0
2018-Feb-22 16:29N 42°23' W 071°03'0 0.0
2018-Feb-22 15:59N 42°23' W 071°03'0 0.0
2018-Feb-22 15:26N 42°23' W 071°03'0 0.0
2018-Feb-22 14:56N 42°23' W 071°03'0 0.0
2018-Feb-22 14:29N 42°23' W 071°03'0 0.0
2018-Feb-22 13:59N 42°23' W 071°03'0 0.0
2018-Feb-22 13:29N 42°23' W 071°03'0 0.1
2018-Feb-22 13:00N 42°23' W 071°03'0 0.0
2018-Feb-22 12:30N 42°23' W 071°03'1 2.8
2018-Feb-22 12:00N 42°22' W 071°03'4 7.2
2018-Feb-22 11:30N 42°20' W 070°59'4 7.7
2018-Feb-22 11:00N 42°22' W 070°55'4 7.7
2018-Feb-22 10:31N 42°22' W 070°49'5 9.4
2018-Feb-22 10:00N 42°19' W 070°45'5 9.1
2018-Feb-22 09:29N 42°15' W 070°41'4 9.2
2018-Feb-22 09:01N 42°11' W 070°38'88 2.5
2018-Feb-20 22:01N 41°14' W 072°07'012.2
2018-Feb-20 21:59N 41°14' W 072°08'612.0
2018-Feb-20 21:30N 41°12' W 072°15'611.8
2018-Feb-20 21:00N 41°11' W 072°23'510.9
2018-Feb-20 20:30N 41°09' W 072°29'510.4
2018-Feb-20 20:00N 41°08' W 072°36'55 9.2
2018-Feb-20 14:05N 40°51' W 073°45'110.3
2018-Feb-20 13:59N 40°50' W 073°46'4 8.4
2018-Feb-20 13:30N 40°48' W 073°50'5 9.3
2018-Feb-20 13:00N 40°47' W 073°56'5 9.6
2018-Feb-20 12:30N 40°42' W 073°59'4 8.6
2018-Feb-20 12:00N 40°40' W 074°03'4 7.0
2018-Feb-20 11:30N 40°39' W 074°08'3 6.5
2018-Feb-20 11:00N 40°38' W 074°12'3 5.1
2018-Feb-20 10:29N 40°36' W 074°12'1 2.7
2018-Feb-20 10:00N 40°34' W 074°13'2 0.6
2018-Feb-20 07:15N 40°33' W 074°14'0 0.3
2018-Feb-20 06:48N 40°34' W 074°14'0 0.0
2018-Feb-20 06:18N 40°34' W 074°14'0 0.0
2018-Feb-20 06:00N 40°34' W 074°14'0 0.0
2018-Feb-20 05:30N 40°34' W 074°14'0 0.0
2018-Feb-20 05:00N 40°34' W 074°14'0 0.0
2018-Feb-20 04:18N 40°34' W 074°14'0 0.0
2018-Feb-20 04:00N 40°34' W 074°14'0 0.0
2018-Feb-20 03:30N 40°34' W 074°14'0 0.0
2018-Feb-20 03:00N 40°34' W 074°14'0 0.0
2018-Feb-20 02:24N 40°34' W 074°14'0 0.0
2018-Feb-20 02:00N 40°34' W 074°14'0 0.0
2018-Feb-20 01:30N 40°34' W 074°14'0 0.0
2018-Feb-20 01:00N 40°34' W 074°14'0 0.0
2018-Feb-20 00:30N 40°34' W 074°14'0 0.0
2018-Feb-19 23:54N 40°34' W 074°14'0 0.0
2018-Feb-19 23:30N 40°34' W 074°14'0 0.0
2018-Feb-19 23:00N 40°34' W 074°14'0 0.0
2018-Feb-19 22:24N 40°34' W 074°14'0 0.0
2018-Feb-19 21:54N 40°34' W 074°14'0 0.0
2018-Feb-19 21:24N 40°34' W 074°14'0 0.0
2018-Feb-19 21:00N 40°34' W 074°14'0 0.0
2018-Feb-19 20:30N 40°34' W 074°14'0 0.0
2018-Feb-19 19:54N 40°34' W 074°14'0 0.0
2018-Feb-19 19:30N 40°34' W 074°14'0 0.0
2018-Feb-19 18:54N 40°34' W 074°14'0 0.0
2018-Feb-19 16:33N 40°34' W 074°14'0 0.0
2018-Feb-19 16:16N 40°34' W 074°14'0 0.0
2018-Feb-19 16:00N 40°33' W 074°14'4 7.1
2018-Feb-19 15:30N 40°37' W 074°12'4 7.3
2018-Feb-19 14:59N 40°39' W 074°08'0 0.6
2018-Feb-19 14:30N 40°38' W 074°08'0 0.0
2018-Feb-19 13:59N 40°38' W 074°08'0 0.0
2018-Feb-19 13:30N 40°38' W 074°08'3 5.8
2018-Feb-19 12:59N 40°38' W 074°12'5 9.4
2018-Feb-19 12:30N 40°34' W 074°13'1 2.5
2018-Feb-19 11:59N 40°33' W 074°14'0 0.0
2018-Feb-19 11:29N 40°33' W 074°14'2 3.1
2018-Feb-19 10:59N 40°34' W 074°13'2 4.2
2018-Feb-19 10:30N 40°36' W 074°12'3 6.4
2018-Feb-19 09:59N 40°39' W 074°09'4 8.5
2018-Feb-19 09:30N 40°39' W 074°04'510.7
2018-Feb-19 09:00N 40°44' W 074°01'611.7
2018-Feb-19 08:30N 40°49' W 073°58'510.9
2018-Feb-19 08:00N 40°54' W 073°55'  
2018-Feb-16 19:37N 40°58' W 073°54'1 7.4
2018-Feb-16 19:30N 40°57' W 073°54'4 7.4
2018-Feb-16 19:00N 40°53' W 073°56'4 7.6
2018-Feb-16 18:31N 40°50' W 073°58'4 7.9
2018-Feb-16 18:00N 40°46' W 074°00'4 8.3
2018-Feb-16 17:30N 40°42' W 074°02'4 8.6
2018-Feb-16 17:00N 40°45' W 073°58'5 9.8
2018-Feb-16 16:30N 40°48' W 073°52'4 8.3
2018-Feb-16 16:00N 40°49' W 073°47'5 9.8
2018-Feb-16 15:27N 40°53' W 073°42'4710.1
2018-Feb-16 10:46N 41°06' W 072°42'3 9.6
2018-Feb-16 10:28N 41°07' W 072°38'4 9.3
2018-Feb-16 10:00N 41°08' W 072°33'5 9.1
2018-Feb-16 09:30N 41°09' W 072°27'4 8.0
2018-Feb-16 09:00N 41°11' W 072°22'4 7.4
2018-Feb-16 08:30N 41°12' W 072°17'4 7.4
2018-Feb-16 07:59N 41°13' W 072°12'4 7.4
2018-Feb-16 07:30N 41°14' W 072°08'90 7.2
2018-Feb-15 19:00N 42°11' W 070°34'5 9.7
2018-Feb-15 18:30N 42°14' W 070°39'5 9.8
2018-Feb-15 18:00N 42°18' W 070°43'5 9.8
2018-Feb-15 17:30N 42°21' W 070°48'4 8.9
2018-Feb-15 17:01N 42°22' W 070°54'5 8.9
2018-Feb-15 16:27N 42°20' W 070°60'4 8.1
2018-Feb-15 16:00N 42°23' W 071°03'1 1.5
2018-Feb-15 15:31N 42°23' W 071°03'0 0.1
2018-Feb-15 14:59N 42°23' W 071°03'0 0.0
2018-Feb-15 14:26N 42°23' W 071°03'0 0.0
2018-Feb-15 13:59N 42°23' W 071°03'0 0.0
2018-Feb-15 13:26N 42°23' W 071°03'0 0.0
2018-Feb-15 12:59N 42°23' W 071°03'0 0.0
2018-Feb-15 12:29N 42°23' W 071°03'0 0.0
2018-Feb-15 11:59N 42°23' W 071°03'0 0.0
2018-Feb-15 11:29N 42°23' W 071°03'0 0.0
2018-Feb-15 10:59N 42°23' W 071°03'0 0.0
2018-Feb-15 10:29N 42°23' W 071°03'0 0.0
2018-Feb-15 09:56N 42°23' W 071°03'0 0.0
2018-Feb-15 09:26N 42°23' W 071°03'0 0.0
2018-Feb-15 08:59N 42°23' W 071°03'0 0.0
2018-Feb-15 08:26N 42°23' W 071°03'0 0.0
2018-Feb-15 07:59N 42°23' W 071°03'0 0.0
2018-Feb-15 07:26N 42°23' W 071°03'0 0.0
2018-Feb-15 06:56N 42°23' W 071°03'0 0.0
2018-Feb-15 06:20N 42°23' W 071°03'0 0.0
2018-Feb-15 05:59N 42°23' W 071°03'0 0.1
2018-Feb-15 05:30N 42°23' W 071°03'0 0.2
2018-Feb-15 05:01N 42°23' W 071°03'2 3.3
2018-Feb-15 04:30N 42°23' W 071°01'0 1.0
2018-Feb-15 04:00N 42°24' W 071°01'0 0.0
2018-Feb-15 03:31N 42°24' W 071°01'0 0.0
2018-Feb-15 03:00N 42°24' W 071°01'0 0.1
2018-Feb-15 02:31N 42°24' W 071°01'0 0.0
2018-Feb-15 02:00N 42°24' W 071°01'0 0.0
2018-Feb-15 01:30N 42°24' W 071°01'0 0.0
2018-Feb-15 01:01N 42°24' W 071°01'0 0.0
2018-Feb-15 00:30N 42°24' W 071°01'0 0.0
2018-Feb-15 00:00N 42°24' W 071°01'  

Dump ship's entire track history